Skip Navigation LinksHome page > Weather > Current weather Skip Navigation Links

Current Weather

Jakutsk, Russia

For information only: do not use for flight planning or navigation.
Latest weather
Observation time Sunday, February 7, 2016 2:00 PM JST
Local time Sunday, February 7, 2016 2:38 PM JST
Flight conditions Instrument Meteorological Conditions
Winds
Wind direction North (10°)
Wind speed 4 mph
Visibility 1.2 mi.
Present weather mist
Sky condition
Ceiling unlimited
Temperature -44°F
Dewpoint -53°F
Altimeter 30.03 in.Hg
Precipitation
QF 2:34 AM
Derived measurements
Relative humidity 58%
Wind chill -60°F
Density altitude -7504 ft.
Remarks
No significant changes expected in the next two hours.
METAR UEEE 070500Z 01002MPS 1900 R23L/1800D BR NSC M42/M47 Q1017 R23L/490150 NOSIG RMK QFE754

Settings

Location code

InnerDrive.Weather 4.0.5722.1 Release CLR 4.0.30319.34209
Copyright ©2015 Inner Drive Technology. All rights reserved. Portions Copyright ©1986-2015 David Braverman.

Find weather

Site navigation


Skip Navigation Links

Place info

Page info

PayPal - The safer, easier way to pay online!

Return home.

Copyright ©2016 Inner Drive Technology. Purveyors of fine, hand-crafted computer software. Page printed 2016-02-07T05:38:43 UTC.